Terminal Aerodrome Forecast
Issued by NWS

Home | Current Version | Previous Version | Text Only | Print | Product List | Glossary On
Versions: 1 2 3 4 5 6 7 8 9 10 11 12
000
FTUS42 TJSJ 232322
TAFKPK
TAF
TKPK 232322Z 2400/2424 09011KT P6SM VCSH SCT018 BKN045
     FM240700 07008KT P6SM VCSH SCT018 BKN040
     FM241450 09014KT P6SM FEW022 SCT050 BKN100
     FM242300 08012KT P6SM FEW019 SCT040 SCT120
      AMD NOT SKED 2402/2411=

USA.gov is the U.S. government's official web portal to all federal, state and local government web resources and services.